Spencer, Iowa
Current Conditions -  °F | °C
As of 11:05 PM on Thursday 30 Oct 2014 (Local Time) from KSPW Reporting Station
Overcast Overcast  
Wind Chill: -5°   Ceiling: 3100
Heat Index:   Visibility: 10mi
Dew Point: -4°   Wind: 23mph
Humidity: 64%   Direction: 340°NNW
Pressure: 30.38"   Gusts: 33mph
Location:  43.14°N, 95.14°W
Report Text: KSPW 310405Z AUTO 34020G29KT 10SM OVC031 02/M04 A3038 RMK AO2 PK WND 34029/0357 T00171044 TSNO
Loading
Personal Weather Stations






























Interactive Weather Map
Tropical Storm Tracking
New forecast layout! Learn more

10-Day Weather Forecast

Advertisements
Track Severe Weather on mobile